.
WxDataArchive / Data Records for 2012-03-25
2012-03-24 March 2012 2012-03-26

Data Records for Sunday, 25 March 2012

Time	Temp	Chill	HIndex	Humid	Dewpt	 Wind 	HiWind	WindDir	Rain 	Barom 
-----	----	-----	------	-----	-----	------	------	-------	-----	----- 
00:00	56.2	56.2	56.2	93	54.2	0	0	---	0.00	29.851 
00:05	56.2	56.2	56.2	93	54.2	0	0	---	0.00	29.851 
00:10	56.2	56.2	56.2	93	54.2	0	0	---	0.00	29.851 
00:15	56.0	56.0	56.0	93	54.0	0	0	---	0.00	29.851 
00:20	56.2	56.2	56.2	94	54.5	0	0	---	0.00	29.851 
00:25	56.3	56.3	56.3	94	54.6	0	0	---	0.00	29.851 
00:30	56.5	56.5	56.5	94	54.8	0	2	68	0.00	29.856 
00:35	56.7	56.7	56.7	94	55.0	0	0	---	0.00	29.856 
00:40	56.7	56.7	56.7	94	55.0	0	0	---	0.00	29.856 
00:45	56.7	56.7	56.7	94	55.0	0	0	---	0.00	29.860 
00:50	56.7	56.7	56.7	94	55.0	0	0	---	0.00	29.860 
00:55	56.6	56.6	56.6	94	54.9	0	0	---	0.00	29.860 
01:00	56.6	56.6	56.6	94	54.9	0	0	---	0.00	29.865 
01:05	56.6	56.6	56.6	94	54.9	0	0	---	0.00	29.865 
01:10	56.7	56.7	56.7	94	55.0	0	0	---	0.00	29.865 
01:15	56.7	56.7	56.7	94	55.0	0	0	---	0.00	29.865 
01:20	56.9	56.9	56.9	94	55.2	0	0	---	0.00	29.865 
01:25	56.9	56.9	56.9	94	55.2	0	0	---	0.00	29.865 
01:30	56.9	56.9	56.9	94	55.2	0	0	---	0.00	29.871 
01:35	57.0	57.0	57.0	94	55.3	0	0	---	0.00	29.871 
01:40	57.2	57.2	57.2	94	55.5	0	0	---	0.00	29.871 
01:45	57.2	57.2	57.2	94	55.5	0	0	---	0.00	29.863 
01:50	57.2	57.2	57.2	94	55.5	0	0	---	0.00	29.863 
01:55	57.2	57.2	57.2	94	55.5	0	0	---	0.00	29.863 
02:00	57.3	57.3	57.3	94	55.6	0	0	---	0.00	29.862 
02:05	57.3	57.3	57.3	94	55.6	0	1	68	0.00	29.862 
02:10	57.3	57.3	57.3	94	55.6	0	0	---	0.00	29.862 
02:15	57.3	57.3	57.3	94	55.6	0	0	---	0.00	29.867 
02:20	57.3	57.3	57.3	94	55.6	0	0	---	0.00	29.867 
02:25	57.3	57.3	57.3	94	55.6	0	1	68	0.00	29.867 
02:30	57.3	57.3	57.3	94	55.6	0	0	---	0.00	29.875 
02:35	57.3	57.3	57.3	94	55.6	0	0	---	0.00	29.875 
02:40	57.3	57.3	57.3	94	55.6	0	1	68	0.00	29.875 
02:45	57.3	57.3	57.3	94	55.6	0	0	---	0.00	29.878 
02:50	57.3	57.3	57.3	94	55.6	0	1	68	0.00	29.878 
02:55	57.3	57.3	57.3	94	55.6	0	1	68	0.00	29.878 
03:00	57.3	57.3	57.3	93	55.3	0	2	68	0.00	29.879 
03:05	57.2	57.2	57.2	93	55.2	0	1	45	0.00	29.879 
03:10	57.2	57.2	57.2	93	55.2	0	0	---	0.00	29.879 
03:15	57.2	57.2	57.2	93	55.2	0	2	45	0.00	29.875 
03:20	57.2	57.2	57.2	93	55.2	0	1	45	0.00	29.875 
03:25	57.2	57.2	57.2	92	54.9	0	1	45	0.00	29.875 
03:30	57.2	57.2	57.2	92	54.9	0	0	---	0.00	29.873 
03:35	57.0	57.0	57.0	92	54.7	0	1	45	0.00	29.873 
03:40	57.0	57.0	57.0	92	54.7	0	0	---	0.00	29.873 
03:45	57.0	57.0	57.0	92	54.7	0	0	---	0.00	29.864 
03:50	57.0	57.0	57.0	92	54.7	0	0	---	0.00	29.864 
03:55	57.0	57.0	57.0	92	54.7	0	0	---	0.00	29.864 
04:00	57.0	57.0	57.0	92	54.7	0	0	---	0.00	29.862 
04:05	57.0	57.0	57.0	92	54.7	0	0	---	0.00	29.862 
04:10	56.9	56.9	56.9	92	54.6	0	0	---	0.00	29.862 
04:15	56.9	56.9	56.9	92	54.6	0	0	---	0.00	29.857 
04:20	56.7	56.7	56.7	92	54.4	0	0	---	0.00	29.857 
04:25	56.7	56.7	56.7	92	54.4	0	0	---	0.00	29.857 
04:30	56.6	56.6	56.6	92	54.3	0	0	---	0.00	29.863 
04:35	56.6	56.6	56.6	92	54.3	0	0	---	0.00	29.863 
04:40	56.6	56.6	56.6	92	54.3	0	0	---	0.00	29.863 
04:45	56.6	56.6	56.6	92	54.3	0	0	---	0.00	29.862 
04:50	56.6	56.6	56.6	92	54.3	0	0	---	0.00	29.862 
04:55	56.6	56.6	56.6	92	54.3	0	0	---	0.00	29.862 
05:00	56.7	56.7	56.7	92	54.4	0	1	45	0.00	29.868 
05:05	56.7	56.7	56.7	92	54.4	0	1	45	0.00	29.868 
05:10	56.7	56.7	56.7	92	54.4	0	1	45	0.00	29.868 
05:15	56.9	56.9	56.9	92	54.6	0	2	45	0.00	29.875 
05:20	56.9	56.9	56.9	92	54.6	0	1	45	0.00	29.875 
05:25	56.9	56.9	56.9	92	54.6	0	1	45	0.00	29.875 
05:30	56.9	56.9	56.9	92	54.6	0	1	45	0.00	29.875 
05:35	56.7	56.7	56.7	91	54.1	1	2	45	0.00	29.875 
05:40	56.7	56.7	56.7	91	54.1	0	3	45	0.00	29.875 
05:45	56.7	56.7	56.7	91	54.1	0	2	22	0.00	29.872 
05:50	56.7	56.7	56.7	91	54.1	0	1	22	0.00	29.872 
05:55	56.7	56.7	56.7	91	54.1	0	1	22	0.00	29.872 
06:00	56.7	56.7	56.7	91	54.1	0	1	22	0.00	29.877 
06:05	56.6	56.6	56.6	91	54.0	0	2	22	0.00	29.877 
06:10	56.6	56.6	56.6	91	54.0	0	2	22	0.00	29.877 
06:15	56.5	56.5	56.5	91	53.9	0	1	22	0.00	29.878 
06:20	56.5	56.5	56.5	91	53.9	0	1	22	0.00	29.878 
06:25	56.5	56.5	56.5	91	53.9	0	1	22	0.00	29.878 
06:30	56.5	56.5	56.5	91	53.9	0	1	22	0.00	29.884 
06:35	56.5	56.5	56.5	92	54.2	0	1	22	0.00	29.884 
06:40	56.3	56.3	56.3	92	54.0	1	3	292	0.00	29.884 
06:45	56.2	56.2	56.2	92	53.9	0	2	292	0.00	29.891 
06:50	56.2	56.2	56.2	92	53.9	0	2	292	0.00	29.891 
06:55	56.0	56.0	56.0	92	53.7	0	1	292	0.00	29.891 
07:00	55.9	55.9	55.9	92	53.6	1	3	292	0.00	29.894 
07:05	55.9	55.9	55.9	92	53.6	1	4	292	0.00	29.894 
07:10	55.7	55.7	55.7	92	53.4	0	4	292	0.00	29.894 
07:15	55.7	55.7	55.7	92	53.4	0	1	292	0.00	29.895 
07:20	55.7	55.7	55.7	92	53.4	0	1	292	0.00	29.895 
07:25	55.7	55.7	55.7	92	53.4	0	1	292	0.00	29.895 
07:30	55.6	55.6	55.6	92	53.3	0	0	---	0.00	29.894 
07:35	55.6	55.6	55.6	92	53.3	0	1	292	0.00	29.894 
07:40	55.6	55.6	55.6	92	53.3	0	1	292	0.00	29.894 
07:45	55.4	55.4	55.4	92	53.1	0	1	292	0.00	29.900 
07:50	55.4	55.4	55.4	92	53.1	0	1	292	0.00	29.900 
07:55	55.4	55.4	55.4	92	53.1	0	1	292	0.00	29.900 
08:00	55.3	55.3	55.3	92	53.0	0	2	292	0.00	29.901 
08:05	55.3	55.3	55.3	92	53.0	0	1	292	0.00	29.901 
08:10	55.1	55.1	55.1	92	52.8	0	2	292	0.00	29.901 
08:15	55.1	55.1	55.1	92	52.8	0	0	---	0.00	29.915 
08:20	55.1	55.1	55.1	93	53.1	0	0	---	0.00	29.915 
08:25	55.1	55.1	55.1	93	53.1	0	0	---	0.00	29.915 
08:30	55.1	55.1	55.1	93	53.1	0	0	---	0.00	29.916 
08:35	55.3	55.3	55.3	93	53.3	0	1	292	0.00	29.916 
08:40	55.6	55.6	55.6	93	53.6	0	2	292	0.00	29.916 
08:45	55.6	55.6	55.6	93	53.6	0	2	292	0.00	29.927 
08:50	55.7	55.7	55.7	92	53.4	0	1	292	0.00	29.927 
08:55	55.7	55.7	55.7	92	53.4	1	5	292	0.00	29.927 
09:00	55.7	55.7	55.7	92	53.4	0	2	270	0.00	29.930 
09:05	55.7	55.7	55.7	92	53.4	1	3	270	0.00	29.930 
09:10	55.7	55.7	55.7	92	53.4	1	3	270	0.00	29.930 
09:15	55.9	55.9	55.9	91	53.3	0	2	270	0.00	29.929 
09:20	55.9	55.9	55.9	91	53.3	0	1	270	0.00	29.929 
09:25	55.9	55.9	55.9	91	53.3	0	3	270	0.00	29.929 
09:30	55.9	55.9	55.9	90	53.0	0	2	68	0.00	29.931 
09:35	55.9	55.9	55.9	90	53.0	0	1	68	0.00	29.931 
09:40	55.9	55.9	55.9	90	53.0	1	4	68	0.00	29.931 
09:45	56.0	56.0	56.0	90	53.1	0	3	292	0.00	29.934 
09:50	56.0	56.0	56.0	89	52.8	0	2	292	0.00	29.934 
09:55	56.0	56.0	56.0	89	52.8	0	3	292	0.00	29.934 
10:00	56.2	56.2	56.2	89	53.0	1	5	270	0.00	29.938 
10:05	56.3	56.3	56.3	89	53.1	1	3	270	0.00	29.938 
10:10	56.5	56.5	56.5	88	53.0	0	4	270	0.00	29.938 
10:15	56.6	56.6	56.6	88	53.1	0	3	292	0.00	29.943 
10:20	56.7	56.7	56.7	88	53.2	1	3	0	0.00	29.943 
10:25	56.9	56.9	56.9	87	53.1	0	2	0	0.00	29.943 
10:30	57.2	57.2	57.2	87	53.4	1	4	270	0.00	29.944 
10:35	57.3	57.3	57.3	86	53.1	0	2	270	0.00	29.944 
10:40	57.5	57.5	57.5	85	53.0	1	3	292	0.00	29.944 
10:45	57.5	57.5	57.5	85	53.0	0	2	292	0.00	29.950 
10:50	57.6	57.6	57.6	84	52.8	0	3	315	0.00	29.950 
10:55	57.6	57.6	57.6	84	52.8	1	4	315	0.00	29.950 
11:00	57.8	57.8	57.8	84	53.0	0	2	315	0.00	29.957 
11:05	58.0	58.0	58.0	83	52.9	1	3	338	0.00	29.957 
11:10	58.1	58.1	58.1	83	53.0	1	4	0	0.00	29.957 
11:15	58.3	58.3	58.3	83	53.2	1	3	338	0.00	29.956 
11:20	58.7	58.7	58.7	82	53.2	0	2	338	0.00	29.956 
11:25	59.3	59.3	59.3	82	53.8	1	3	338	0.00	29.956 
11:30	59.8	59.8	59.8	81	54.0	1	4	338	0.00	29.955 
11:35	59.8	59.8	59.8	79	53.3	1	4	292	0.00	29.955 
11:40	59.8	59.8	59.8	77	52.6	1	3	270	0.00	29.955 
11:45	59.9	59.9	59.9	77	52.7	1	3	0	0.00	29.959 
11:50	59.8	59.8	59.8	76	52.2	2	7	270	0.00	29.959 
11:55	59.6	59.6	59.6	77	52.4	2	6	292	0.00	29.959 
12:00	59.6	59.6	59.6	77	52.4	1	4	292	0.00	29.965 
12:05	59.5	59.5	59.5	76	51.9	1	4	270	0.00	29.965 
12:10	59.6	59.6	59.6	77	52.4	1	3	270	0.00	29.965 
12:15	59.6	59.6	59.6	76	52.0	1	4	338	0.00	29.962 
12:20	60.4	60.4	60.4	76	52.8	1	3	338	0.00	29.962 
12:25	61.2	61.2	61.2	75	53.2	2	6	270	0.00	29.962 
12:30	62.0	62.0	62.0	73	53.2	1	4	270	0.00	29.959 
12:35	62.4	62.4	62.4	72	53.2	1	3	338	0.00	29.959 
12:40	63.2	63.2	63.2	71	53.6	1	4	338	0.00	29.959 
12:45	63.2	63.2	63.2	70	53.2	1	4	292	0.00	29.956 
12:50	63.1	63.1	63.1	71	53.5	2	5	292	0.00	29.956 
12:55	63.2	63.2	63.2	72	54.0	1	5	270	0.00	29.956 
13:00	63.4	63.4	63.4	70	53.4	1	4	338	0.00	29.957 
13:05	64.0	64.0	64.0	70	54.0	1	4	68	0.00	29.957 
13:10	64.2	64.2	64.2	68	53.4	1	4	292	0.00	29.957 
13:15	64.0	64.0	64.0	68	53.2	1	5	270	0.00	29.956 
13:20	64.5	64.5	64.5	69	54.1	1	3	270	0.00	29.956 
13:25	65.0	65.0	65.0	68	54.2	1	3	45	0.00	29.956 
13:30	65.5	65.5	65.5	68	54.7	0	2	22	0.00	29.954 
13:35	65.0	65.0	65.0	67	53.8	1	3	22	0.00	29.954 
13:40	64.8	64.8	64.8	66	53.2	1	3	248	0.00	29.954 
13:45	64.7	64.7	64.7	67	53.5	0	2	338	0.00	29.953 
13:50	64.5	64.5	64.5	66	52.9	1	4	270	0.00	29.953 
13:55	64.7	64.7	64.7	69	54.3	1	4	22	0.00	29.953 
14:00	65.6	65.6	65.6	69	55.1	0	2	22	0.00	29.953 
14:05	66.1	66.1	66.1	65	54.0	2	6	338	0.00	29.953 
14:10	66.3	66.3	66.3	65	54.2	2	5	0	0.00	29.953 
14:15	66.4	66.4	66.4	66	54.7	1	3	338	0.00	29.951 
14:20	66.9	66.9	66.9	65	54.7	1	5	338	0.00	29.951 
14:25	66.9	66.9	66.9	65	54.7	1	4	338	0.00	29.951 
14:30	66.6	66.6	66.6	64	54.0	2	6	0	0.00	29.948 
14:35	66.8	66.8	66.8	64	54.2	2	6	292	0.00	29.948 
14:40	67.1	67.1	67.1	63	54.1	2	7	270	0.00	29.948 
14:45	67.1	67.1	67.1	64	54.5	1	3	292	0.00	29.942 
14:50	67.4	67.4	67.4	63	54.4	1	4	292	0.00	29.942 
14:55	67.6	67.6	67.6	64	55.0	1	4	45	0.00	29.942 
15:00	67.8	67.8	67.8	63	54.7	1	2	292	0.00	29.938 
15:05	68.1	68.1	68.1	64	55.5	1	2	292	0.00	29.938 
15:10	68.3	68.3	68.3	63	55.2	1	2	292	0.00	29.938 
15:15	68.4	68.4	68.4	61	54.4	1	3	338	0.00	29.936 
15:20	68.6	68.6	68.6	63	55.5	0	3	292	0.00	29.936 
15:25	68.9	68.9	68.9	63	55.8	1	3	22	0.00	29.936 
15:30	68.9	68.9	68.9	60	54.4	0	2	22	0.00	29.932 
15:35	68.6	68.6	68.6	61	54.6	1	3	0	0.00	29.932 
15:40	68.6	68.6	68.6	61	54.6	1	3	292	0.00	29.932 
15:45	68.9	68.9	68.9	59	54.0	1	3	292	0.00	29.923 
15:50	69.1	69.1	69.1	59	54.2	1	3	22	0.00	29.923 
15:55	69.6	69.6	69.6	58	54.2	1	3	315	0.00	29.923 
16:00	69.9	69.9	69.9	57	54.0	1	4	270	0.00	29.922 
16:05	69.9	69.9	69.9	57	54.0	1	4	315	0.00	29.922 
16:10	69.6	69.6	69.6	57	53.7	1	3	292	0.00	29.922 
16:15	69.3	69.3	69.3	58	53.9	1	5	0	0.00	29.922 
16:20	69.3	69.3	69.3	59	54.3	0	2	292	0.00	29.922 
16:25	69.4	69.4	69.4	59	54.4	0	2	292	0.00	29.922 
16:30	69.3	69.3	69.3	57	53.4	1	4	292	0.00	29.921 
16:35	69.1	69.1	69.1	57	53.2	1	3	338	0.00	29.921 
16:40	69.4	69.4	69.4	58	54.0	0	2	338	0.00	29.921 
16:45	69.6	69.6	69.6	56	53.2	1	3	338	0.00	29.922 
16:50	69.6	69.6	69.6	54	52.2	1	4	248	0.00	29.922 
16:55	69.9	69.9	69.9	55	53.0	1	3	248	0.00	29.922 
17:00	70.6	70.6	70.6	52	52.1	2	5	292	0.00	29.921 
17:05	70.9	70.9	70.9	51	51.9	2	6	292	0.00	29.921 
17:10	71.3	71.3	71.3	52	52.8	1	4	315	0.00	29.921 
17:15	71.5	71.5	71.5	51	52.4	0	2	0	0.00	29.919 
17:20	71.6	71.6	71.6	50	52.0	1	3	0	0.00	29.919 
17:25	71.8	71.8	71.8	50	52.1	0	2	225	0.00	29.919 
17:30	71.8	71.8	71.8	48	51.0	1	3	315	0.00	29.920 
17:35	71.3	71.3	71.3	49	51.1	2	4	292	0.00	29.920 
17:40	71.1	71.1	71.1	51	52.0	1	5	292	0.00	29.920 
17:45	70.8	70.8	70.8	49	50.7	1	5	292	0.00	29.921 
17:50	70.8	70.8	70.8	51	51.8	0	2	0	0.00	29.921 
17:55	70.9	70.9	70.9	49	50.8	1	3	0	0.00	29.921 
18:00	70.6	70.6	70.6	49	50.5	1	4	292	0.00	29.923 
18:05	70.3	70.3	70.3	49	50.2	1	3	270	0.00	29.923 
18:10	69.9	69.9	69.9	50	50.4	0	2	292	0.00	29.923 
18:15	70.1	70.1	70.1	50	50.6	1	2	22	0.00	29.931 
18:20	70.3	70.3	70.3	51	51.3	0	2	0	0.00	29.931 
18:25	70.4	70.4	70.4	49	50.3	1	3	0	0.00	29.931 
18:30	70.6	70.6	70.6	47	49.4	1	4	270	0.00	29.935 
18:35	70.6	70.6	70.6	46	48.8	1	6	315	0.00	29.935 
18:40	70.4	70.4	70.4	46	48.6	1	4	292	0.00	29.935 
18:45	70.3	70.3	70.3	46	48.5	1	4	0	0.00	29.936 
18:50	70.3	70.3	70.3	48	49.7	0	2	248	0.00	29.936 
18:55	70.1	70.1	70.1	47	48.9	1	3	45	0.00	29.936 
19:00	69.9	69.9	69.9	46	48.2	1	4	338	0.00	29.940 
19:05	69.6	69.6	69.6	46	47.9	1	5	270	0.00	29.940 
19:10	69.4	69.4	69.4	48	48.8	1	4	270	0.00	29.940 
19:15	69.1	69.1	69.1	47	48.0	0	3	315	0.00	29.946 
19:20	68.9	68.9	68.9	47	47.8	1	4	292	0.00	29.946 
19:25	68.8	68.8	68.8	47	47.7	1	4	270	0.00	29.946 
19:30	68.4	68.4	68.4	48	47.9	1	3	270	0.00	29.947 
19:35	68.4	68.4	68.4	48	47.9	1	3	292	0.00	29.947 
19:40	68.1	68.1	68.1	50	48.7	1	7	292	0.00	29.947 
19:45	67.8	67.8	67.8	52	49.5	2	5	292	0.00	29.953 
19:50	67.3	67.3	67.3	52	49.1	2	5	315	0.00	29.953 
19:55	66.8	66.8	66.8	53	49.1	2	7	338	0.00	29.953 
20:00	66.3	66.3	66.3	54	49.1	2	5	270	0.00	29.956 
20:05	65.8	65.8	65.8	55	49.2	2	6	270	0.00	29.956 
20:10	65.6	65.6	65.6	56	49.5	1	5	292	0.00	29.956 
20:15	65.3	65.3	65.3	57	49.7	2	5	292	0.00	29.959 
20:20	65.0	65.0	65.0	58	49.9	2	5	315	0.00	29.959 
20:25	64.7	64.7	64.7	59	50.0	2	9	270	0.00	29.959 
20:30	64.5	64.5	64.5	60	50.3	2	6	248	0.00	29.971 
20:35	64.2	64.2	64.2	61	50.5	3	11	292	0.00	29.971 
20:40	63.9	63.9	63.9	62	50.6	2	7	292	0.00	29.971 
20:45	63.7	63.7	63.7	63	50.9	2	7	292	0.00	29.976 
20:50	63.4	63.4	63.4	63	50.6	2	6	292	0.00	29.976 
20:55	63.1	63.1	63.1	64	50.7	1	4	270	0.00	29.976 
21:00	62.7	62.7	62.7	65	50.8	1	2	270	0.00	29.985 
21:05	62.4	62.4	62.4	67	51.3	2	4	270	0.00	29.985 
21:10	62.1	62.1	62.1	67	51.0	2	5	270	0.00	29.985 
21:15	62.0	62.0	62.0	68	51.3	1	5	270	0.00	29.989 
21:20	61.6	61.6	61.6	68	50.9	1	5	270	0.00	29.989 
21:25	61.3	61.3	61.3	69	51.0	1	3	292	0.00	29.989 
21:30	61.2	61.2	61.2	70	51.3	0	2	292	0.00	29.994 
21:35	60.9	60.9	60.9	71	51.4	1	3	292	0.00	29.994 
21:40	60.5	60.5	60.5	72	51.4	1	3	292	0.00	29.994 
21:45	60.4	60.4	60.4	72	51.3	0	2	292	0.00	29.997 
21:50	60.1	60.1	60.1	73	51.4	0	2	292	0.00	29.997 
21:55	59.8	59.8	59.8	73	51.1	0	3	292	0.00	29.997 
22:00	59.5	59.5	59.5	74	51.2	0	3	292	0.00	30.006 
22:05	59.3	59.3	59.3	75	51.4	0	2	292	0.00	30.006 
22:10	59.0	59.0	59.0	75	51.1	0	2	292	0.00	30.006 
22:15	58.9	58.9	58.9	76	51.3	0	2	292	0.00	30.009 
22:20	58.6	58.6	58.6	75	50.7	1	4	292	0.00	30.009 
22:25	58.4	58.4	58.4	75	50.5	1	3	338	0.00	30.009 
22:30	58.3	58.3	58.3	75	50.4	1	4	270	0.00	30.009 
22:35	58.0	58.0	58.0	76	50.5	0	3	270	0.00	30.009 
22:40	57.6	57.6	57.6	76	50.1	0	3	292	0.00	30.009 
22:45	57.5	57.5	57.5	76	50.0	0	1	292	0.00	30.015 
22:50	57.0	57.0	57.0	76	49.5	0	1	292	0.00	30.015 
22:55	56.7	56.7	56.7	75	48.9	0	2	292	0.00	30.015 
23:00	56.5	56.5	56.5	73	47.9	0	2	292	0.00	30.023 
23:05	56.3	56.3	56.3	71	47.0	1	3	292	0.00	30.023 
23:10	56.2	56.2	56.2	70	46.5	1	3	292	0.00	30.023 
23:15	56.0	56.0	56.0	70	46.4	1	5	270	0.00	30.023 
23:20	55.9	55.9	55.9	69	45.9	0	3	270	0.00	30.023 
23:25	55.6	55.6	55.6	69	45.6	0	2	270	0.00	30.023 
23:30	55.4	55.4	55.4	68	45.0	0	2	270	0.00	30.026 
23:35	55.3	55.3	55.3	68	44.9	0	2	270	0.00	30.026 
23:40	55.1	55.1	55.1	67	44.3	0	2	270	0.00	30.026 
23:45	54.8	54.8	54.8	66	43.7	0	2	270	0.00	30.035 
23:50	54.7	54.7	54.7	65	43.2	1	4	270	0.00	30.035 
23:55	54.5	54.5	54.5	65	43.0	0	3	270	0.00	30.035 

CoCoRaHS
IN-AL-39
A2 Web Hosting
Creative Commons License
GoDaddy
search engine by freefind advanced

loaded 2018-11-18 11:15:47 • last modified 2010-11-18 10:43:29
Privacy PolicyDisclaimer
• wx.awcolley.com is powered by PmWiki v.2002016 •
• all content (unless otherwise noted) © 2018 A W Colley